createdAt,value
2022-08-03T00:00:01.716Z,966.05
2022-08-03T00:01:01.685Z,966.07
2022-08-03T00:02:01.667Z,966.09
2022-08-03T00:03:01.758Z,966.03
2022-08-03T00:04:01.683Z,966.04
2022-08-03T00:05:01.685Z,966.04
2022-08-03T00:06:04.368Z,966.08
2022-08-03T00:07:01.615Z,965.99
2022-08-03T00:08:01.600Z,966.01
2022-08-03T00:09:09.704Z,966.04
2022-08-03T00:10:01.584Z,965.97
2022-08-03T00:11:01.617Z,966.01
2022-08-03T00:12:01.649Z,966.01
2022-08-03T00:13:01.591Z,965.99
2022-08-03T00:14:01.563Z,965.96
2022-08-03T00:15:01.548Z,965.94
2022-08-03T00:16:01.525Z,965.93
2022-08-03T00:17:01.561Z,965.93
2022-08-03T00:18:01.500Z,965.94
2022-08-03T00:19:01.475Z,965.92
2022-08-03T00:20:01.478Z,965.93
2022-08-03T00:21:01.456Z,965.91
2022-08-03T00:22:01.501Z,965.90
2022-08-03T00:23:01.459Z,965.92
2022-08-03T00:24:01.439Z,965.92
2022-08-03T00:25:01.472Z,965.94
2022-08-03T00:26:01.428Z,965.93
2022-08-03T00:27:01.395Z,965.89
2022-08-03T00:28:01.437Z,965.92
2022-08-03T00:29:01.369Z,965.90
2022-08-03T00:30:01.355Z,965.86
2022-08-03T00:31:01.355Z,965.90
2022-08-03T00:32:01.387Z,965.85
2022-08-03T00:33:01.371Z,965.88
2022-08-03T00:34:03.360Z,965.88
2022-08-03T00:35:07.886Z,965.90
2022-08-03T00:36:02.308Z,965.90
2022-08-03T00:37:01.286Z,965.86
2022-08-03T00:38:01.277Z,965.90
2022-08-03T00:39:01.309Z,965.88
2022-08-03T00:40:01.246Z,965.85
2022-08-03T00:41:01.247Z,965.87
2022-08-03T00:42:01.220Z,965.91
2022-08-03T00:43:01.265Z,965.86
2022-08-03T00:44:01.207Z,965.92
2022-08-03T00:45:01.243Z,965.90
2022-08-03T00:46:01.223Z,965.90
2022-08-03T00:47:01.164Z,965.92
2022-08-03T00:48:01.167Z,965.89
2022-08-03T00:49:01.216Z,965.87
2022-08-03T00:50:01.179Z,965.89
2022-08-03T00:51:01.117Z,965.90
2022-08-03T00:52:01.110Z,965.88
2022-08-03T00:53:02.091Z,965.88
2022-08-03T00:54:01.098Z,965.89
2022-08-03T00:55:01.115Z,965.90
2022-08-03T00:56:01.120Z,965.90
2022-08-03T00:57:01.091Z,965.92
2022-08-03T00:58:01.034Z,965.92
2022-08-03T00:59:01.035Z,965.95
2022-08-03T01:00:01.021Z,965.88
2022-08-03T01:01:01.126Z,965.89
2022-08-03T01:02:01.019Z,965.91
2022-08-03T01:03:00.999Z,965.92
2022-08-03T01:04:00.980Z,965.90
2022-08-03T01:05:00.973Z,965.89
2022-08-03T01:06:00.951Z,965.92
2022-08-03T01:07:00.983Z,965.91
2022-08-03T01:08:00.967Z,965.91
2022-08-03T01:09:00.931Z,965.92
2022-08-03T01:10:00.901Z,965.87
2022-08-03T01:11:00.912Z,965.89
2022-08-03T01:12:01.912Z,965.86
2022-08-03T01:13:00.900Z,965.85
2022-08-03T01:14:04.563Z,965.88
2022-08-03T01:15:01.863Z,965.86
2022-08-03T01:16:00.840Z,965.86
2022-08-03T01:17:00.858Z,965.90
2022-08-03T01:18:00.928Z,965.86
2022-08-03T01:19:00.831Z,965.87
2022-08-03T01:20:00.807Z,965.87
2022-08-03T01:21:00.778Z,965.86
2022-08-03T01:22:00.785Z,965.85
2022-08-03T01:23:00.797Z,965.84
2022-08-03T01:24:00.771Z,965.83
2022-08-03T01:25:00.737Z,965.84
2022-08-03T01:26:00.718Z,965.79
2022-08-03T01:27:00.755Z,965.81
2022-08-03T01:28:00.696Z,965.83
2022-08-03T01:29:00.703Z,965.78
2022-08-03T01:30:00.700Z,965.78
2022-08-03T01:31:00.679Z,965.77
2022-08-03T01:32:59.109Z,965.73
2022-08-03T01:33:02.172Z,965.75
2022-08-03T01:34:00.637Z,965.77
2022-08-03T01:35:00.634Z,965.80
2022-08-03T01:36:00.612Z,965.76
2022-08-03T01:37:00.596Z,965.78
2022-08-03T01:38:00.586Z,965.79
2022-08-03T01:39:00.612Z,965.82
2022-08-03T01:40:00.586Z,965.77
2022-08-03T01:41:00.570Z,965.81
2022-08-03T01:42:00.582Z,965.78
2022-08-03T01:43:00.529Z,965.79
2022-08-03T01:44:27.726Z,965.78
2022-08-03T01:45:01.524Z,965.77
2022-08-03T01:46:00.549Z,965.79
2022-08-03T01:47:00.548Z,965.78
2022-08-03T01:48:00.517Z,965.72
2022-08-03T01:49:00.558Z,965.75
2022-08-03T01:50:01.463Z,965.75
2022-08-03T01:51:00.480Z,965.78
2022-08-03T01:52:04.394Z,965.74
2022-08-03T01:53:00.425Z,965.71
2022-08-03T01:54:00.463Z,965.75
2022-08-03T01:55:00.408Z,965.73
2022-08-03T01:56:00.381Z,965.75
2022-08-03T01:57:00.388Z,965.75
2022-08-03T01:58:05.247Z,965.73
2022-08-03T01:59:01.349Z,965.70
2022-08-03T02:00:00.398Z,965.79
2022-08-03T02:01:00.400Z,965.76
2022-08-03T02:02:27.535Z,965.76
2022-08-03T02:03:01.342Z,965.79
2022-08-03T02:04:01.296Z,965.81
2022-08-03T02:05:00.334Z,965.83
2022-08-03T02:06:58.930Z,965.83
2022-08-03T02:07:03.284Z,965.85
2022-08-03T02:08:00.265Z,965.79
2022-08-03T02:09:00.260Z,965.84
2022-08-03T02:10:00.259Z,965.82
2022-08-03T02:11:00.212Z,965.80
2022-08-03T02:12:00.208Z,965.79
2022-08-03T02:13:00.229Z,965.79
2022-08-03T02:14:00.202Z,965.82
2022-08-03T02:15:00.265Z,965.77
2022-08-03T02:16:00.168Z,965.75
2022-08-03T02:17:00.147Z,965.75
2022-08-03T02:18:00.153Z,965.78
2022-08-03T02:19:00.168Z,965.73
2022-08-03T02:20:00.161Z,965.73
2022-08-03T02:21:00.136Z,965.79
2022-08-03T02:22:01.407Z,965.78
2022-08-03T02:23:00.080Z,965.75
2022-08-03T02:24:00.076Z,965.77
2022-08-03T02:25:00.113Z,965.82
2022-08-03T02:26:00.190Z,965.78
2022-08-03T02:27:00.092Z,965.78
2022-08-03T02:28:00.021Z,965.75
2022-08-03T02:29:00.015Z,965.75
2022-08-03T02:30:00.061Z,965.74
2022-08-03T02:31:00.003Z,965.79
2022-08-03T02:32:00.009Z,965.75
2022-08-03T02:32:59.978Z,965.71
2022-08-03T02:33:59.951Z,965.74
2022-08-03T02:34:59.966Z,965.72
2022-08-03T02:35:59.976Z,965.78
2022-08-03T02:36:59.937Z,965.74
2022-08-03T02:37:59.946Z,965.78
2022-08-03T02:38:59.897Z,965.73
2022-08-03T02:40:00.264Z,965.75
2022-08-03T02:40:59.880Z,965.77
2022-08-03T02:41:59.874Z,965.78
2022-08-03T02:42:59.878Z,965.79
2022-08-03T02:44:07.165Z,965.75
2022-08-03T02:45:00.869Z,965.76
2022-08-03T02:45:59.831Z,965.76
2022-08-03T02:46:59.820Z,965.76
2022-08-03T02:47:59.811Z,965.76
2022-08-03T02:48:59.835Z,965.71
2022-08-03T02:50:00.897Z,965.70
2022-08-03T02:50:59.830Z,965.75
2022-08-03T02:51:59.748Z,965.74
2022-08-03T02:52:59.752Z,965.69
2022-08-03T02:53:59.756Z,965.75
2022-08-03T02:54:59.758Z,965.73
2022-08-03T02:55:59.760Z,965.69
2022-08-03T02:56:59.709Z,965.70
2022-08-03T02:58:01.617Z,965.70
2022-08-03T02:58:59.727Z,965.67
2022-08-03T02:59:59.702Z,965.72
2022-08-03T03:00:59.696Z,965.65
2022-08-03T03:01:59.637Z,965.71
2022-08-03T03:03:00.137Z,965.67
2022-08-03T03:03:59.624Z,965.69
2022-08-03T03:05:53.716Z,965.64
2022-08-03T03:06:00.586Z,965.69
2022-08-03T03:07:01.788Z,965.66
2022-08-03T03:07:59.577Z,965.67
2022-08-03T03:08:59.983Z,965.68
2022-08-03T03:09:59.553Z,965.63
2022-08-03T03:10:59.574Z,965.63
2022-08-03T03:11:59.536Z,965.62
2022-08-03T03:12:59.519Z,965.63
2022-08-03T03:13:59.499Z,965.64
2022-08-03T03:14:59.495Z,965.60
2022-08-03T03:15:59.534Z,965.64
2022-08-03T03:16:59.505Z,965.63
2022-08-03T03:17:59.474Z,965.69
2022-08-03T03:18:59.540Z,965.67
2022-08-03T03:19:59.430Z,965.69
2022-08-03T03:20:59.473Z,965.71
2022-08-03T03:21:59.429Z,965.72
2022-08-03T03:22:59.398Z,965.68
2022-08-03T03:23:59.387Z,965.67
2022-08-03T03:24:59.454Z,965.65
2022-08-03T03:25:59.374Z,965.64
2022-08-03T03:26:59.374Z,965.64
2022-08-03T03:27:59.371Z,965.65
2022-08-03T03:28:59.346Z,965.63
2022-08-03T03:29:59.372Z,965.65
2022-08-03T03:30:59.335Z,965.71
2022-08-03T03:31:59.308Z,965.67
2022-08-03T03:32:59.342Z,965.69
2022-08-03T03:33:59.325Z,965.66
2022-08-03T03:34:59.293Z,965.70
2022-08-03T03:35:59.258Z,965.67
2022-08-03T03:36:59.241Z,965.66
2022-08-03T03:37:59.237Z,965.72
2022-08-03T03:38:59.247Z,965.71
2022-08-03T03:40:00.272Z,965.71
2022-08-03T03:40:59.194Z,965.73
2022-08-03T03:41:59.196Z,965.68
2022-08-03T03:42:59.185Z,965.75
2022-08-03T03:43:59.173Z,965.77
2022-08-03T03:44:59.487Z,965.76
2022-08-03T03:45:59.188Z,965.77
2022-08-03T03:46:59.131Z,965.73
2022-08-03T03:47:59.144Z,965.73
2022-08-03T03:48:59.163Z,965.73
2022-08-03T03:49:59.112Z,965.82
2022-08-03T03:50:59.125Z,965.79
2022-08-03T03:51:59.104Z,965.82
2022-08-03T03:52:59.070Z,965.77
2022-08-03T03:53:59.054Z,965.79
2022-08-03T03:55:01.190Z,965.78
2022-08-03T03:56:02.837Z,965.78
2022-08-03T03:56:59.016Z,965.77
2022-08-03T03:57:59.007Z,965.77
2022-08-03T03:58:59.007Z,965.81
2022-08-03T03:59:58.989Z,965.78
2022-08-03T04:00:59.084Z,965.78
2022-08-03T04:01:59.476Z,965.74
2022-08-03T04:02:58.966Z,965.79
2022-08-03T04:03:58.982Z,965.76
2022-08-03T04:04:58.927Z,965.77
2022-08-03T04:05:58.929Z,965.77
2022-08-03T04:06:58.902Z,965.77
2022-08-03T04:07:58.896Z,965.78
2022-08-03T04:08:59.004Z,965.76
2022-08-03T04:09:59.202Z,965.82
2022-08-03T04:10:59.876Z,965.80
2022-08-03T04:11:58.857Z,965.79
2022-08-03T04:12:58.868Z,965.81
2022-08-03T04:14:02.016Z,965.81
2022-08-03T04:14:58.871Z,965.82
2022-08-03T04:15:58.799Z,965.86
2022-08-03T04:16:58.801Z,965.81
2022-08-03T04:17:58.811Z,965.83
2022-08-03T04:18:58.781Z,965.83
2022-08-03T04:19:58.811Z,965.85
2022-08-03T04:20:58.751Z,965.87
2022-08-03T04:21:58.771Z,965.89
2022-08-03T04:22:58.729Z,965.87
2022-08-03T04:23:58.712Z,965.90
2022-08-03T04:24:58.707Z,965.90
2022-08-03T04:25:58.772Z,965.89
2022-08-03T04:26:58.693Z,965.93
2022-08-03T04:28:28.279Z,965.93
2022-08-03T04:28:59.669Z,965.91
2022-08-03T04:29:58.653Z,965.93
2022-08-03T04:30:58.645Z,965.92
2022-08-03T04:31:58.667Z,965.98
2022-08-03T04:32:58.606Z,965.96
2022-08-03T04:33:58.619Z,965.99
2022-08-03T04:34:58.620Z,965.94
2022-08-03T04:36:02.844Z,965.93
2022-08-03T04:36:59.560Z,965.92
2022-08-03T04:37:58.567Z,965.93
2022-08-03T04:38:58.546Z,965.96
2022-08-03T04:39:58.557Z,965.94
2022-08-03T04:40:58.524Z,965.99
2022-08-03T04:42:07.718Z,965.97
2022-08-03T04:42:59.529Z,965.96
2022-08-03T04:43:58.483Z,965.97
2022-08-03T04:45:01.392Z,965.95
2022-08-03T04:45:58.493Z,966.02
2022-08-03T04:46:58.448Z,966.02
2022-08-03T04:47:58.434Z,966.02
2022-08-03T04:48:58.523Z,966.03
2022-08-03T04:49:58.418Z,966.05
2022-08-03T04:50:58.414Z,966.07
2022-08-03T04:51:58.435Z,966.05
2022-08-03T04:52:58.389Z,966.06
2022-08-03T04:53:58.372Z,966.09
2022-08-03T04:54:58.390Z,966.02
2022-08-03T04:55:58.357Z,966.09
2022-08-03T04:56:58.421Z,966.07
2022-08-03T04:57:58.337Z,966.07
2022-08-03T04:58:58.342Z,966.10
2022-08-03T05:00:03.092Z,966.15
2022-08-03T05:00:59.301Z,966.19
2022-08-03T05:01:58.391Z,966.13
2022-08-03T05:02:58.326Z,966.13
2022-08-03T05:03:58.276Z,966.14
2022-08-03T05:04:58.253Z,966.13
2022-08-03T05:06:01.646Z,966.18
2022-08-03T05:06:58.229Z,966.16
2022-08-03T05:07:58.233Z,966.15
2022-08-03T05:08:58.243Z,966.12
2022-08-03T05:10:03.251Z,966.15
2022-08-03T05:10:59.571Z,966.19
2022-08-03T05:11:58.165Z,966.14
2022-08-03T05:12:58.168Z,966.19
2022-08-03T05:13:58.176Z,966.22
2022-08-03T05:14:58.144Z,966.19
2022-08-03T05:15:58.147Z,966.22
2022-08-03T05:16:58.144Z,966.16
2022-08-03T05:17:58.105Z,966.17
2022-08-03T05:18:58.096Z,966.18
2022-08-03T05:19:58.076Z,966.20
2022-08-03T05:20:58.061Z,966.21
2022-08-03T05:21:58.118Z,966.25
2022-08-03T05:22:58.060Z,966.27
2022-08-03T05:23:58.047Z,966.26
2022-08-03T05:24:58.157Z,966.31
2022-08-03T05:25:58.017Z,966.31
2022-08-03T05:26:58.014Z,966.34
2022-08-03T05:27:58.065Z,966.22
2022-08-03T05:28:57.977Z,966.27
2022-08-03T05:30:31.130Z,966.28
2022-08-03T05:30:58.965Z,966.27
2022-08-03T05:31:57.955Z,966.28
2022-08-03T05:32:57.956Z,966.28
2022-08-03T05:33:57.963Z,966.27
2022-08-03T05:34:57.913Z,966.29
2022-08-03T05:36:03.563Z,966.27
2022-08-03T05:36:58.915Z,966.31
2022-08-03T05:37:57.870Z,966.34
2022-08-03T05:39:02.522Z,966.26
2022-08-03T05:39:58.880Z,966.27
2022-08-03T05:41:22.724Z,966.26
2022-08-03T05:41:58.873Z,966.29
2022-08-03T05:42:57.817Z,966.27
2022-08-03T05:43:57.808Z,966.27
2022-08-03T05:44:57.800Z,966.19
2022-08-03T05:46:11.687Z,966.21
2022-08-03T05:46:58.815Z,966.17
2022-08-03T05:47:57.789Z,966.24
2022-08-03T05:48:57.826Z,966.29
2022-08-03T05:49:57.738Z,966.27
2022-08-03T05:50:57.744Z,966.24
2022-08-03T05:52:11.019Z,966.24
2022-08-03T05:52:58.740Z,966.29
2022-08-03T05:53:57.746Z,966.19
2022-08-03T05:54:57.867Z,966.22
2022-08-03T05:56:03.490Z,966.21
2022-08-03T05:56:58.705Z,966.24
2022-08-03T05:57:57.665Z,966.18
2022-08-03T05:58:57.675Z,966.22
2022-08-03T05:59:58.806Z,966.21
2022-08-03T06:00:57.613Z,966.16
2022-08-03T06:01:57.794Z,966.20
2022-08-03T06:02:57.596Z,966.19
2022-08-03T06:03:57.654Z,966.13
2022-08-03T06:04:57.570Z,966.18
2022-08-03T06:06:00.228Z,966.16
2022-08-03T06:06:57.586Z,966.20
2022-08-03T06:07:57.558Z,966.17
2022-08-03T06:08:57.535Z,966.24
2022-08-03T06:10:37.408Z,966.23
2022-08-03T06:10:58.507Z,966.20
2022-08-03T06:11:57.502Z,966.26
2022-08-03T06:12:57.488Z,966.20
2022-08-03T06:13:57.468Z,966.23
2022-08-03T06:14:57.480Z,966.25
2022-08-03T06:15:57.484Z,966.24
2022-08-03T06:16:57.438Z,966.28
2022-08-03T06:18:01.487Z,966.27
2022-08-03T06:18:57.425Z,966.27
2022-08-03T06:19:57.408Z,966.28
2022-08-03T06:20:57.409Z,966.33
2022-08-03T06:21:57.423Z,966.28
2022-08-03T06:23:00.233Z,966.27
2022-08-03T06:23:57.363Z,966.22
2022-08-03T06:24:57.375Z,966.25
2022-08-03T06:25:57.386Z,966.30
2022-08-03T06:26:57.342Z,966.26
2022-08-03T06:27:57.318Z,966.28
2022-08-03T06:28:57.309Z,966.26
2022-08-03T06:29:57.312Z,966.29
2022-08-03T06:30:57.279Z,966.26
2022-08-03T06:31:57.324Z,966.30
2022-08-03T06:32:57.258Z,966.28
2022-08-03T06:34:34.145Z,966.37
2022-08-03T06:34:58.266Z,966.31
2022-08-03T06:35:57.251Z,966.33
2022-08-03T06:37:01.510Z,966.38
2022-08-03T06:37:57.218Z,966.37
2022-08-03T06:38:57.221Z,966.35
2022-08-03T06:39:57.193Z,966.38
2022-08-03T06:40:57.193Z,966.36
2022-08-03T06:41:57.203Z,966.36
2022-08-03T06:42:57.159Z,966.30
2022-08-03T06:44:03.806Z,966.34
2022-08-03T06:44:58.139Z,966.34
2022-08-03T06:45:57.172Z,966.28
2022-08-03T06:46:57.124Z,966.29
2022-08-03T06:47:57.115Z,966.30
2022-08-03T06:48:57.242Z,966.32
2022-08-03T06:50:12.642Z,966.27
2022-08-03T06:50:58.090Z,966.28
2022-08-03T06:52:03.427Z,966.30
2022-08-03T06:52:58.073Z,966.24
2022-08-03T06:53:57.033Z,966.25
2022-08-03T06:54:57.168Z,966.28
2022-08-03T06:55:57.005Z,966.29
2022-08-03T06:56:56.993Z,966.29
2022-08-03T06:58:00.154Z,966.26
2022-08-03T06:58:57.976Z,966.31
2022-08-03T07:00:10.306Z,966.32
2022-08-03T07:00:58.049Z,966.29
2022-08-03T07:01:56.942Z,966.31
2022-08-03T07:02:58.488Z,966.33
2022-08-03T07:03:56.927Z,966.37
2022-08-03T07:04:57.157Z,966.38
2022-08-03T07:05:56.897Z,966.35
2022-08-03T07:06:56.917Z,966.35
2022-08-03T07:07:56.871Z,966.37
2022-08-03T07:08:59.566Z,966.33
2022-08-03T07:09:58.325Z,966.33
2022-08-03T07:10:56.843Z,966.33
2022-08-03T07:11:56.876Z,966.32
2022-08-03T07:12:57.059Z,966.28
2022-08-03T07:13:56.800Z,966.31
2022-08-03T07:15:00.695Z,966.34
2022-08-03T07:15:56.873Z,966.34
2022-08-03T07:16:56.782Z,966.34
2022-08-03T07:17:56.779Z,966.32
2022-08-03T07:18:56.745Z,966.36
2022-08-03T07:19:56.734Z,966.36
2022-08-03T07:20:56.763Z,966.34
2022-08-03T07:21:56.772Z,966.28
2022-08-03T07:22:57.753Z,966.34
2022-08-03T07:23:56.689Z,966.33
2022-08-03T07:24:56.690Z,966.30
2022-08-03T07:25:56.671Z,966.29
2022-08-03T07:26:56.671Z,966.33
2022-08-03T07:27:56.659Z,966.28
2022-08-03T07:28:56.664Z,966.30
2022-08-03T07:29:56.630Z,966.26
2022-08-03T07:30:56.609Z,966.25
2022-08-03T07:31:56.605Z,966.30
2022-08-03T07:32:56.619Z,966.24
2022-08-03T07:33:56.622Z,966.27
2022-08-03T07:35:00.498Z,966.24
2022-08-03T07:35:56.558Z,966.20
2022-08-03T07:36:56.546Z,966.23
2022-08-03T07:37:56.553Z,966.21
2022-08-03T07:38:56.559Z,966.19
2022-08-03T07:39:56.598Z,966.20
2022-08-03T07:40:56.500Z,966.24
2022-08-03T07:41:56.493Z,966.21
2022-08-03T07:42:56.480Z,966.18
2022-08-03T07:43:56.489Z,966.17
2022-08-03T07:44:56.500Z,966.20
2022-08-03T07:45:56.464Z,966.19
2022-08-03T07:46:56.707Z,966.18
2022-08-03T07:47:56.420Z,966.19
2022-08-03T07:48:56.455Z,966.19
2022-08-03T07:49:56.402Z,966.21
2022-08-03T07:50:56.429Z,966.22
2022-08-03T07:51:56.402Z,966.23
2022-08-03T07:52:56.410Z,966.22
2022-08-03T07:53:56.367Z,966.23
2022-08-03T07:54:56.355Z,966.22
2022-08-03T07:55:56.338Z,966.23
2022-08-03T07:56:56.335Z,966.23
2022-08-03T07:57:56.353Z,966.22
2022-08-03T07:58:56.299Z,966.17
2022-08-03T07:59:57.158Z,966.16
2022-08-03T08:00:57.351Z,966.18
2022-08-03T08:01:56.278Z,966.20
2022-08-03T08:02:56.271Z,966.15
2022-08-03T08:03:56.299Z,966.22
2022-08-03T08:04:56.237Z,966.18
2022-08-03T08:05:56.229Z,966.15
2022-08-03T08:06:56.213Z,966.15
2022-08-03T08:07:56.232Z,966.16
2022-08-03T08:08:56.226Z,966.14
2022-08-03T08:09:56.183Z,966.17
2022-08-03T08:10:57.987Z,966.16
2022-08-03T08:11:56.172Z,966.15
2022-08-03T08:12:56.149Z,966.17
2022-08-03T08:13:56.162Z,966.14
2022-08-03T08:14:56.164Z,966.13
2022-08-03T08:15:56.122Z,966.19
2022-08-03T08:16:56.107Z,966.17
2022-08-03T08:17:56.103Z,966.14
2022-08-03T08:18:56.092Z,966.13
2022-08-03T08:19:56.107Z,966.11
2022-08-03T08:20:56.105Z,966.06
2022-08-03T08:22:02.793Z,966.09
2022-08-03T08:22:57.043Z,966.08
2022-08-03T08:23:57.770Z,966.09
2022-08-03T08:24:56.030Z,966.08
2022-08-03T08:25:56.042Z,966.11
2022-08-03T08:26:55.996Z,966.12
2022-08-03T08:28:30.387Z,966.07
2022-08-03T08:28:57.025Z,966.09
2022-08-03T08:30:00.582Z,966.10
2022-08-03T08:30:57.049Z,966.06
2022-08-03T08:31:55.942Z,966.06
2022-08-03T08:32:55.985Z,966.04
2022-08-03T08:34:04.547Z,966.03
2022-08-03T08:34:56.918Z,966.03
2022-08-03T08:35:55.901Z,966.06
2022-08-03T08:36:55.909Z,966.07
2022-08-03T08:37:55.908Z,966.01
2022-08-03T08:38:55.946Z,966.07
2022-08-03T08:39:55.853Z,966.03
2022-08-03T08:40:55.870Z,965.96
2022-08-03T08:41:55.876Z,966.02
2022-08-03T08:42:58.706Z,966.08
2022-08-03T08:44:00.008Z,966.05
2022-08-03T08:44:55.870Z,966.01
2022-08-03T08:45:55.796Z,966.03
2022-08-03T08:46:55.774Z,965.97
2022-08-03T08:48:00.356Z,966.00
2022-08-03T08:48:56.832Z,965.97
2022-08-03T08:50:09.194Z,965.90
2022-08-03T08:50:56.767Z,965.94
2022-08-03T08:52:00.893Z,965.91
2022-08-03T08:52:56.730Z,965.95
2022-08-03T08:53:55.710Z,965.94
2022-08-03T08:54:55.728Z,965.94
2022-08-03T08:55:55.756Z,965.92
2022-08-03T08:56:55.670Z,965.95
2022-08-03T08:57:55.690Z,965.95
2022-08-03T08:58:55.691Z,965.96
2022-08-03T08:59:57.334Z,965.95
2022-08-03T09:00:55.714Z,965.95
2022-08-03T09:01:55.667Z,965.91
2022-08-03T09:02:55.612Z,965.92
2022-08-03T09:03:55.610Z,965.92
2022-08-03T09:04:55.628Z,965.86
2022-08-03T09:05:56.403Z,965.92
2022-08-03T09:07:18.714Z,965.87
2022-08-03T09:07:56.580Z,965.92
2022-08-03T09:08:55.541Z,965.92
2022-08-03T09:10:10.131Z,965.96
2022-08-03T09:10:56.512Z,965.86
2022-08-03T09:12:13.734Z,965.93
2022-08-03T09:12:56.562Z,965.91
2022-08-03T09:13:55.487Z,965.90
2022-08-03T09:15:16.089Z,965.93
2022-08-03T09:16:01.529Z,965.89
2022-08-03T09:16:56.450Z,965.88
2022-08-03T09:17:55.480Z,965.93
2022-08-03T09:18:55.476Z,965.92
2022-08-03T09:20:03.759Z,965.91
2022-08-03T09:20:56.424Z,965.95
2022-08-03T09:21:55.407Z,965.89
2022-08-03T09:22:55.408Z,965.94
2022-08-03T09:24:02.151Z,965.91
2022-08-03T09:25:21.669Z,965.94
2022-08-03T09:25:56.355Z,965.88
2022-08-03T09:26:55.380Z,965.95
2022-08-03T09:27:55.345Z,965.92
2022-08-03T09:29:01.649Z,965.94
2022-08-03T09:29:56.326Z,965.96
2022-08-03T09:30:55.299Z,965.94
2022-08-03T09:31:55.397Z,965.92
2022-08-03T09:32:55.276Z,965.95
2022-08-03T09:33:55.317Z,965.91
2022-08-03T09:34:58.107Z,965.89
2022-08-03T09:35:57.629Z,965.87
2022-08-03T09:36:55.954Z,965.93
2022-08-03T09:38:12.085Z,965.96
2022-08-03T09:38:56.227Z,965.84
2022-08-03T09:39:55.224Z,965.88
2022-08-03T09:40:59.460Z,965.89
2022-08-03T09:41:56.216Z,965.88
2022-08-03T09:42:55.186Z,965.87
2022-08-03T09:43:55.187Z,965.86
2022-08-03T09:44:55.202Z,965.88
2022-08-03T09:45:55.158Z,965.91
2022-08-03T09:46:55.174Z,965.88
2022-08-03T09:47:55.118Z,965.91
2022-08-03T09:48:55.451Z,965.83
2022-08-03T09:49:55.089Z,965.93
2022-08-03T09:50:58.657Z,965.96
2022-08-03T09:52:32.007Z,965.95
2022-08-03T09:52:56.065Z,965.93
2022-08-03T09:53:57.307Z,965.94
2022-08-03T09:54:55.878Z,965.96
2022-08-03T09:56:34.595Z,965.95
2022-08-03T09:56:56.062Z,965.93
2022-08-03T09:57:55.044Z,965.97
2022-08-03T09:58:55.000Z,965.91
2022-08-03T10:00:02.961Z,965.94
2022-08-03T10:00:56.074Z,965.95
2022-08-03T10:01:55.010Z,965.93
2022-08-03T10:02:54.981Z,965.89
2022-08-03T10:04:03.319Z,965.95
2022-08-03T10:04:55.956Z,966.00
2022-08-03T10:05:59.370Z,965.95
2022-08-03T10:06:54.904Z,965.95
2022-08-03T10:07:54.951Z,965.91
2022-08-03T10:08:54.902Z,965.92
2022-08-03T10:10:31.842Z,965.88
2022-08-03T10:10:55.897Z,965.89
2022-08-03T10:11:54.881Z,965.95
2022-08-03T10:12:54.883Z,965.87
2022-08-03T10:13:57.971Z,965.91
2022-08-03T10:14:55.824Z,965.90
2022-08-03T10:16:21.969Z,965.89
2022-08-03T10:16:55.824Z,965.86
2022-08-03T10:17:54.817Z,965.85
2022-08-03T10:18:54.784Z,965.83
2022-08-03T10:19:54.778Z,965.80
2022-08-03T10:20:54.753Z,965.85
2022-08-03T10:21:54.750Z,965.81
2022-08-03T10:22:54.750Z,965.74
2022-08-03T10:23:54.751Z,965.74
2022-08-03T10:24:54.722Z,965.73
2022-08-03T10:25:54.694Z,965.76
2022-08-03T10:26:54.776Z,965.83
2022-08-03T10:27:54.691Z,965.80
2022-08-03T10:28:54.679Z,965.82
2022-08-03T10:29:54.699Z,965.77
2022-08-03T10:30:54.664Z,965.75
2022-08-03T10:31:57.684Z,965.75
2022-08-03T10:32:54.765Z,965.70
2022-08-03T10:33:54.622Z,965.73
2022-08-03T10:35:00.050Z,965.72
2022-08-03T10:35:55.618Z,965.72
2022-08-03T10:36:54.591Z,965.72
2022-08-03T10:37:56.933Z,965.72
2022-08-03T10:38:54.607Z,965.73
2022-08-03T10:39:54.547Z,965.72
2022-08-03T10:40:58.935Z,965.73
2022-08-03T10:41:54.556Z,965.71
2022-08-03T10:42:54.544Z,965.67
2022-08-03T10:43:54.546Z,965.69
2022-08-03T10:44:54.554Z,965.66
2022-08-03T10:45:54.505Z,965.71
2022-08-03T10:46:54.465Z,965.70
2022-08-03T10:47:54.464Z,965.67
2022-08-03T10:48:54.526Z,965.64
2022-08-03T10:49:54.477Z,965.72
2022-08-03T10:50:54.449Z,965.63
2022-08-03T10:51:54.589Z,965.61
2022-08-03T10:52:54.436Z,965.63
2022-08-03T10:53:55.771Z,965.57
2022-08-03T10:54:54.420Z,965.59
2022-08-03T10:55:54.379Z,965.58
2022-08-03T10:56:54.820Z,965.54
2022-08-03T10:57:58.358Z,965.53
2022-08-03T10:58:57.998Z,965.51
2022-08-03T10:59:54.354Z,965.48
2022-08-03T11:00:54.357Z,965.52
2022-08-03T11:01:58.903Z,965.47
2022-08-03T11:02:55.296Z,965.47
2022-08-03T11:03:54.280Z,965.52
2022-08-03T11:04:54.286Z,965.39
2022-08-03T11:05:54.296Z,965.41
2022-08-03T11:06:54.289Z,965.44
2022-08-03T11:07:54.577Z,965.43
2022-08-03T11:08:54.262Z,965.44
2022-08-03T11:09:54.272Z,965.37
2022-08-03T11:10:54.226Z,965.38
2022-08-03T11:11:54.251Z,965.41
2022-08-03T11:12:54.198Z,965.43
2022-08-03T11:13:54.174Z,965.42
2022-08-03T11:14:54.210Z,965.44
2022-08-03T11:15:54.197Z,965.46
2022-08-03T11:16:55.140Z,965.45
2022-08-03T11:17:56.185Z,965.48
2022-08-03T11:18:55.196Z,965.43
2022-08-03T11:19:56.782Z,965.43
2022-08-03T11:20:54.152Z,965.41
2022-08-03T11:21:54.124Z,965.43
2022-08-03T11:22:54.093Z,965.48
2022-08-03T11:24:04.942Z,965.46
2022-08-03T11:24:55.079Z,965.48
2022-08-03T11:25:55.380Z,965.48
2022-08-03T11:26:54.129Z,965.46
2022-08-03T11:27:54.082Z,965.46
2022-08-03T11:28:54.008Z,965.41
2022-08-03T11:29:53.994Z,965.39
2022-08-03T11:30:54.071Z,965.40
2022-08-03T11:31:54.011Z,965.40
2022-08-03T11:32:53.972Z,965.39
2022-08-03T11:33:53.970Z,965.36
2022-08-03T11:34:53.982Z,965.35
2022-08-03T11:35:53.954Z,965.38
2022-08-03T11:36:53.960Z,965.30
2022-08-03T11:38:03.083Z,965.31
2022-08-03T11:38:54.956Z,965.31
2022-08-03T11:39:53.923Z,965.22
2022-08-03T11:40:53.875Z,965.32
2022-08-03T11:41:53.883Z,965.31
2022-08-03T11:42:53.878Z,965.29
2022-08-03T11:43:53.850Z,965.34
2022-08-03T11:44:53.902Z,965.31
2022-08-03T11:45:53.866Z,965.34
2022-08-03T11:46:53.898Z,965.30
2022-08-03T11:47:53.818Z,965.31
2022-08-03T11:48:53.880Z,965.36
2022-08-03T11:49:53.788Z,965.32
2022-08-03T11:50:53.818Z,965.35
2022-08-03T11:51:53.799Z,965.28
2022-08-03T11:52:53.768Z,965.25
2022-08-03T11:53:53.743Z,965.28
2022-08-03T11:54:56.607Z,965.29
2022-08-03T11:55:53.730Z,965.30
2022-08-03T11:56:53.732Z,965.26
2022-08-03T11:59:01.191Z,965.30
2022-08-03T11:59:17.703Z,965.29
2022-08-03T11:59:54.689Z,965.27
2022-08-03T12:00:53.684Z,965.24
2022-08-03T12:01:53.701Z,965.18
2022-08-03T12:02:53.725Z,965.18
2022-08-03T12:03:53.619Z,965.17
2022-08-03T12:04:53.617Z,965.20
2022-08-03T12:05:53.679Z,965.20
2022-08-03T12:06:53.639Z,965.20
2022-08-03T12:08:03.689Z,965.24
2022-08-03T12:08:54.594Z,965.23
2022-08-03T12:09:53.581Z,965.19
2022-08-03T12:10:53.590Z,965.23
2022-08-03T12:12:00.244Z,965.20
2022-08-03T12:12:54.558Z,965.17
2022-08-03T12:14:27.079Z,965.13
2022-08-03T12:14:54.568Z,965.12
2022-08-03T12:15:53.522Z,965.06
2022-08-03T12:16:53.516Z,965.07
2022-08-03T12:17:57.607Z,965.06
2022-08-03T12:18:53.491Z,965.05
2022-08-03T12:19:53.484Z,965.09
2022-08-03T12:20:53.491Z,965.06
2022-08-03T12:21:56.906Z,965.05
2022-08-03T12:22:53.467Z,965.00
2022-08-03T12:23:53.408Z,964.97
2022-08-03T12:24:53.848Z,964.97
2022-08-03T12:25:53.384Z,965.03
2022-08-03T12:26:59.263Z,965.03
2022-08-03T12:27:54.397Z,964.98